Time;durP1;ratioP1;P1;durP2;ratioP2;P2;SDS_P1;SDS_P2;PMS_P1;PMS_P2;Temp;Humidity;BMP_temperature;BMP_pressure;BME280_temperature;BME280_humidity;BME280_pressure;Samples;Min_cycle;Max_cycle;Signal;HPM_P1;HPM_P2
2022/09/11 00:01:07;;;;;;;21.77;13.30;;;8.20;99.90;;;;;;6127134;23;20471;-73
2022/09/11 00:03:36;;;;;;;21.65;12.88;;;8.20;99.90;;;;;;6101138;23;20025;-73
2022/09/11 00:06:05;;;;;;;21.85;12.98;;;8.20;99.90;;;;;;6151719;23;20021;-74
2022/09/11 00:08:34;;;;;;;21.88;14.23;;;8.20;99.90;;;;;;6125406;23;20430;-73
2022/09/11 00:11:07;;;;;;;21.50;13.60;;;8.10;99.90;;;;;;6126990;23;20032;-73
2022/09/11 00:13:36;;;;;;;20.55;14.50;;;8.10;99.90;;;;;;6151570;23;20026;-73
2022/09/11 00:16:06;;;;;;;20.15;12.15;;;8.10;99.90;;;;;;6124909;23;20056;-73
2022/09/11 00:18:35;;;;;;;21.83;13.75;;;8.10;99.90;;;;;;6126608;23;20026;-74
2022/09/11 00:21:06;;;;;;;22.17;13.15;;;8.00;99.90;;;;;;6125889;23;20048;-74
2022/09/11 00:23:36;;;;;;;18.77;12.57;;;8.00;99.90;;;;;;6150485;23;20033;-74
2022/09/11 00:26:05;;;;;;;23.83;12.68;;;8.00;99.90;;;;;;6151061;23;20028;-74
2022/09/11 00:28:33;;;;;;;24.13;13.23;;;8.00;99.90;;;;;;6152835;23;20140;-73
2022/09/11 00:31:03;;;;;;;18.33;12.27;;;7.90;99.90;;;;;;6124884;23;20446;-73
2022/09/11 00:33:32;;;;;;;20.52;12.27;;;7.90;99.90;;;;;;6124632;23;20370;-73
2022/09/11 00:36:02;;;;;;;22.88;13.80;;;7.90;99.90;;;;;;6126899;23;20356;-73
2022/09/11 00:38:32;;;;;;;18.60;12.60;;;7.80;99.90;;;;;;6127194;23;20161;-73
2022/09/11 00:41:03;;;;;;;25.23;13.05;;;7.80;99.90;;;;;;6099870;23;20148;-73
2022/09/11 00:43:54;;;;;;;19.08;12.43;;;7.80;99.90;;;;;;6125297;23;20033;-73
2022/09/11 00:46:23;;;;;;;19.38;13.07;;;7.80;99.90;;;;;;6127105;23;20055;-73
2022/09/11 00:48:50;;;;;;;23.48;12.82;;;7.80;99.90;;;;;;6125038;23;20538;-73
2022/09/11 00:51:23;;;;;;;18.20;12.55;;;7.80;99.90;;;;;;6151580;23;20030;-73
2022/09/11 00:53:53;;;;;;;22.67;12.57;;;7.80;99.90;;;;;;6126752;23;20025;-73
2022/09/11 00:56:26;;;;;;;19.70;13.35;;;7.70;99.90;;;;;;6126779;23;20109;-73
2022/09/11 00:58:56;;;;;;;18.70;12.27;;;7.70;99.90;;;;;;6151298;23;20032;-73
2022/09/11 01:01:23;;;;;;;21.38;12.85;;;7.60;99.90;;;;;;6099627;23;20156;-74
2022/09/11 01:03:51;;;;;;;20.33;12.57;;;7.60;99.90;;;;;;6126789;23;20367;-74
2022/09/11 01:06:20;;;;;;;21.20;12.32;;;7.60;99.90;;;;;;6151999;23;20025;-74
2022/09/11 01:08:47;;;;;;;21.13;12.20;;;7.50;99.90;;;;;;6150937;23;20076;-73
2022/09/11 01:11:35;;;;;;;22.67;12.18;;;7.50;99.90;;;;;;6151241;23;20458;-73
2022/09/11 01:14:27;;;;;;;17.77;12.20;;;7.50;99.90;;;;;;6125719;23;20022;-73
2022/09/11 01:17:11;;;;;;;18.10;12.77;;;7.50;99.90;;;;;;6151225;23;20456;-74
2022/09/11 01:20:04;;;;;;;19.80;12.13;;;7.50;99.90;;;;;;6125503;23;20031;-73
2022/09/11 01:22:58;;;;;;;21.38;12.07;;;7.40;99.90;;;;;;6127031;23;20025;-73
2022/09/11 01:25:31;;;;;;;18.52;12.93;;;7.40;99.90;;;;;;6102044;23;20439;-73
2022/09/11 01:28:03;;;;;;;23.60;14.20;;;7.40;99.90;;;;;;6123057;23;20052;-74
2022/09/11 01:30:37;;;;;;;18.45;12.20;;;7.30;99.90;;;;;;6124651;23;20538;-74
2022/09/11 01:33:21;;;;;;;20.33;12.75;;;7.30;99.90;;;;;;6125736;23;20486;-73
2022/09/11 01:35:56;;;;;;;19.27;12.25;;;7.30;99.90;;;;;;6149756;23;20113;-73
2022/09/11 01:38:33;;;;;;;20.85;12.73;;;7.40;99.90;;;;;;6124099;23;20025;-74
2022/09/11 01:41:07;;;;;;;20.60;13.00;;;7.30;99.90;;;;;;6152701;23;20026;-74
2022/09/11 01:43:41;;;;;;;20.98;12.60;;;7.30;99.90;;;;;;6126235;23;20025;-74
2022/09/11 01:46:09;;;;;;;25.85;13.60;;;7.30;99.90;;;;;;6123869;23;20031;-74
2022/09/11 01:48:43;;;;;;;18.48;12.13;;;7.20;99.90;;;;;;6123952;23;20083;-74
2022/09/11 01:51:18;;;;;;;20.60;13.05;;;7.20;99.90;;;;;;6125347;23;20052;-73
2022/09/11 01:53:50;;;;;;;17.70;11.95;;;7.20;99.90;;;;;;6124676;23;20490;-73
2022/09/11 01:56:23;;;;;;;21.30;13.38;;;7.20;99.90;;;;;;6125927;23;20021;-74
2022/09/11 01:59:00;;;;;;;21.40;13.45;;;7.30;99.90;;;;;;6100352;23;20070;-73
2022/09/11 02:01:34;;;;;;;18.10;12.85;;;7.20;99.90;;;;;;6125943;23;20478;-74
2022/09/11 02:04:09;;;;;;;18.20;12.75;;;7.10;99.90;;;;;;6124102;23;20028;-73
2022/09/11 02:06:46;;;;;;;20.88;13.80;;;7.10;99.90;;;;;;6098985;23;20468;-74
2022/09/11 02:09:19;;;;;;;20.02;12.93;;;7.10;99.90;;;;;;6150994;23;20103;-73
2022/09/11 02:11:51;;;;;;;22.35;13.32;;;7.10;99.90;;;;;;6126008;23;20025;-73
2022/09/11 02:14:28;;;;;;;25.83;13.68;;;7.00;99.90;;;;;;6149762;23;20021;-73
2022/09/11 02:17:08;;;;;;;18.65;12.35;;;7.00;99.90;;;;;;6123551;23;20026;-73
2022/09/11 02:19:39;;;;;;;18.80;12.90;;;7.00;99.90;;;;;;6126093;23;20100;-72
2022/09/11 02:22:10;;;;;;;17.17;11.77;;;7.00;99.90;;;;;;6148373;23;20091;-73
2022/09/11 02:24:38;;;;;;;16.73;12.75;;;7.00;99.90;;;;;;6124327;23;20064;-73
2022/09/11 02:27:10;;;;;;;22.00;12.95;;;7.00;99.90;;;;;;6150498;23;20025;-73
2022/09/11 02:29:39;;;;;;;18.98;12.95;;;7.00;99.90;;;;;;6125525;23;20125;-73
2022/09/11 02:32:09;;;;;;;20.90;13.35;;;6.90;99.90;;;;;;6150909;23;20036;-73
2022/09/11 02:34:40;;;;;;;19.08;12.65;;;6.90;99.90;;;;;;6150759;23;20026;-73
2022/09/11 02:37:25;;;;;;;19.83;12.65;;;6.90;99.90;;;;;;6151539;23;20022;-73
2022/09/11 02:40:18;;;;;;;21.30;12.70;;;6.80;99.90;;;;;;6124921;23;20029;-74
2022/09/11 02:43:07;;;;;;;16.77;12.00;;;6.80;99.90;;;;;;6124801;23;20104;-74
2022/09/11 02:45:47;;;;;;;16.55;11.57;;;6.80;99.90;;;;;;6123360;23;20026;-73
2022/09/11 02:48:35;;;;;;;16.45;11.10;;;6.80;99.90;;;;;;6125627;23;20366;-73
2022/09/11 02:51:16;;;;;;;19.35;11.35;;;6.70;99.90;;;;;;6148004;23;20451;-73
2022/09/11 02:53:52;;;;;;;16.40;11.48;;;6.70;99.90;;;;;;6149677;23;20052;-73
2022/09/11 02:56:29;;;;;;;14.32;10.95;;;6.70;99.90;;;;;;6125695;23;20072;-73
2022/09/11 02:59:03;;;;;;;19.00;11.18;;;6.70;99.90;;;;;;6124477;23;20112;-73
2022/09/11 03:01:47;;;;;;;15.45;12.07;;;6.70;99.90;;;;;;6149406;23;20034;-73
2022/09/11 03:04:17;;;;;;;21.75;11.27;;;6.70;99.90;;;;;;6124240;23;20021;-73
2022/09/11 03:06:48;;;;;;;17.50;12.05;;;6.70;99.90;;;;;;6125386;23;20026;-73
2022/09/11 03:09:16;;;;;;;19.70;11.02;;;6.70;99.90;;;;;;6099278;23;20514;-74
2022/09/11 03:11:44;;;;;;;16.48;10.68;;;6.70;99.90;;;;;;6123929;23;20447;-73
2022/09/11 03:14:13;;;;;;;19.13;11.25;;;6.70;99.90;;;;;;6124259;23;20029;-73
2022/09/11 03:16:41;;;;;;;19.25;11.07;;;6.70;99.90;;;;;;6125243;23;20068;-73
2022/09/11 03:19:11;;;;;;;15.55;11.27;;;6.60;99.90;;;;;;6123211;23;20411;-74
2022/09/11 03:21:39;;;;;;;16.33;11.27;;;6.60;99.90;;;;;;6124501;23;20029;-73
2022/09/11 03:24:08;;;;;;;15.75;10.07;;;6.60;99.90;;;;;;6124195;23;20426;-73
2022/09/11 03:26:36;;;;;;;15.52;10.98;;;6.60;99.90;;;;;;6097788;23;20088;-73
2022/09/11 03:29:04;;;;;;;17.67;10.93;;;6.60;99.90;;;;;;6121850;23;20100;-73
2022/09/11 03:31:35;;;;;;;18.08;11.38;;;6.60;99.90;;;;;;6122869;23;20033;-73
2022/09/11 03:34:05;;;;;;;22.98;12.35;;;6.60;99.90;;;;;;6122896;23;20025;-73
2022/09/11 03:36:34;;;;;;;17.27;11.05;;;6.60;99.90;;;;;;6121021;23;20447;-73
2022/09/11 03:39:02;;;;;;;14.95;11.18;;;6.60;99.90;;;;;;6146416;23;20510;-73
2022/09/11 03:41:31;;;;;;;22.25;12.98;;;6.60;99.90;;;;;;6122284;23;20064;-73
2022/09/11 03:43:59;;;;;;;18.13;11.52;;;6.60;99.90;;;;;;6125490;23;20022;-73
2022/09/11 03:46:26;;;;;;;19.23;12.15;;;6.60;99.90;;;;;;6123709;23;20025;-74
2022/09/11 03:48:54;;;;;;;18.15;11.43;;;6.60;99.90;;;;;;6150375;23;20529;-73
2022/09/11 03:51:25;;;;;;;19.48;11.10;;;6.60;99.90;;;;;;6125658;23;20108;-73
2022/09/11 03:53:52;;;;;;;20.75;11.98;;;6.60;99.90;;;;;;6125778;23;20044;-73
2022/09/11 03:56:21;;;;;;;18.15;11.70;;;6.70;99.90;;;;;;6122765;23;20451;-74
2022/09/11 03:58:49;;;;;;;21.88;11.63;;;6.70;99.90;;;;;;6124522;23;20021;-74
2022/09/11 04:01:18;;;;;;;19.50;12.10;;;6.70;99.90;;;;;;6150148;23;20029;-73
2022/09/11 04:03:46;;;;;;;20.23;11.30;;;6.70;99.90;;;;;;6099658;23;20049;-73
2022/09/11 04:06:24;;;;;;;26.65;11.60;;;6.70;99.90;;;;;;6123791;23;20076;-73
2022/09/11 04:08:51;;;;;;;20.80;11.95;;;6.70;99.90;;;;;;6101595;23;20025;-73
2022/09/11 04:11:21;;;;;;;16.20;11.48;;;6.70;99.90;;;;;;6102483;23;20454;-73
2022/09/11 04:13:50;;;;;;;16.83;11.90;;;6.70;99.90;;;;;;6125411;23;20374;-74
2022/09/11 04:16:19;;;;;;;22.65;12.45;;;6.70;99.90;;;;;;6125441;23;20054;-73
2022/09/11 04:18:53;;;;;;;19.85;11.48;;;6.80;99.90;;;;;;6102647;23;20028;-73
2022/09/11 04:21:21;;;;;;;24.25;12.30;;;6.80;99.90;;;;;;6127348;23;20022;-73
2022/09/11 04:23:55;;;;;;;21.23;11.27;;;6.80;99.90;;;;;;6124979;23;20032;-73
2022/09/11 04:26:26;;;;;;;21.95;11.85;;;6.70;99.90;;;;;;6125220;23;20022;-73
2022/09/11 04:28:58;;;;;;;17.15;12.10;;;6.80;99.90;;;;;;6126074;23;20060;-73
2022/09/11 04:31:27;;;;;;;19.55;12.05;;;6.80;99.90;;;;;;6125128;23;20032;-74
2022/09/11 04:33:55;;;;;;;20.13;11.32;;;6.80;99.90;;;;;;6102115;23;20068;-74
2022/09/11 04:36:24;;;;;;;17.80;10.50;;;6.80;99.90;;;;;;6101347;23;20022;-74
2022/09/11 04:38:56;;;;;;;20.10;10.73;;;6.90;99.90;;;;;;6151640;23;20033;-73
2022/09/11 04:41:25;;;;;;;23.27;12.40;;;6.90;99.90;;;;;;6125580;23;20022;-74
2022/09/11 04:43:55;;;;;;;20.70;13.00;;;6.90;99.90;;;;;;6124545;23;20096;-74
2022/09/11 04:46:24;;;;;;;20.10;11.23;;;6.90;99.90;;;;;;6125256;23;20049;-74
2022/09/11 04:48:53;;;;;;;16.50;10.40;;;7.00;99.90;;;;;;6126957;23;20025;-73
2022/09/11 04:51:27;;;;;;;17.85;9.63;;;7.00;99.90;;;;;;6124948;23;20466;-73
2022/09/11 04:53:57;;;;;;;13.82;9.38;;;7.00;99.90;;;;;;6125658;23;20032;-74
2022/09/11 04:56:36;;;;;;;15.32;9.75;;;7.00;99.90;;;;;;6126345;23;20021;-74
2022/09/11 04:59:08;;;;;;;17.50;10.20;;;7.00;99.90;;;;;;6151347;23;20032;-73
2022/09/11 05:01:37;;;;;;;17.58;9.77;;;7.10;99.90;;;;;;6123908;23;20488;-74
2022/09/11 05:04:04;;;;;;;16.92;9.35;;;7.10;99.90;;;;;;6124603;23;20359;-74
2022/09/11 05:06:32;;;;;;;10.90;6.95;;;7.20;99.90;;;;;;6101750;23;20021;-74
2022/09/11 05:09:07;;;;;;;13.90;8.75;;;7.20;99.90;;;;;;6149245;23;20395;-73
2022/09/11 05:11:37;;;;;;;11.52;7.45;;;7.30;99.90;;;;;;6125001;23;20029;-74
2022/09/11 05:14:05;;;;;;;12.63;8.27;;;7.30;99.90;;;;;;6126575;23;20026;-74
2022/09/11 05:16:36;;;;;;;13.60;7.75;;;7.40;99.90;;;;;;6126689;23;20072;-74
2022/09/11 05:19:05;;;;;;;11.20;8.15;;;7.50;99.90;;;;;;6124096;23;20403;-74
2022/09/11 05:21:35;;;;;;;11.38;7.35;;;7.50;99.90;;;;;;6123612;23;20407;-74
2022/09/11 05:24:05;;;;;;;12.65;7.38;;;7.50;99.90;;;;;;6126570;23;20022;-74
2022/09/11 05:26:36;;;;;;;10.48;6.88;;;7.60;99.90;;;;;;6124953;23;20021;-74
2022/09/11 05:29:09;;;;;;;14.15;6.53;;;7.60;99.90;;;;;;6123378;23;20051;-74
2022/09/11 05:31:42;;;;;;;8.70;6.45;;;7.70;99.90;;;;;;6125135;23;20362;-74
2022/09/11 05:34:10;;;;;;;10.25;6.20;;;7.80;99.90;;;;;;6149537;23;20406;-73
2022/09/11 05:36:37;;;;;;;9.77;6.50;;;7.90;99.90;;;;;;6125247;23;20286;-74
2022/09/11 05:39:06;;;;;;;12.07;6.85;;;8.00;99.90;;;;;;6124792;23;20021;-73
2022/09/11 05:41:34;;;;;;;11.52;6.32;;;8.10;99.90;;;;;;6124013;23;20052;-74
2022/09/11 05:44:02;;;;;;;10.45;6.78;;;8.20;99.90;;;;;;6152301;23;20032;-73
2022/09/11 05:46:31;;;;;;;10.60;7.53;;;8.20;99.90;;;;;;6099930;23;20407;-74
2022/09/11 05:49:02;;;;;;;9.25;7.00;;;8.40;99.90;;;;;;6124459;23;20159;-74
2022/09/11 05:51:34;;;;;;;13.23;8.38;;;8.50;99.90;;;;;;6124599;23;20060;-73
2022/09/11 05:54:02;;;;;;;9.40;7.03;;;8.60;99.90;;;;;;6101977;23;20018;-73
2022/09/11 05:56:30;;;;;;;10.32;7.25;;;8.70;99.90;;;;;;6124694;23;20378;-75
2022/09/11 05:59:03;;;;;;;14.07;7.68;;;8.90;99.90;;;;;;6150485;23;20025;-74
2022/09/11 06:01:35;;;;;;;13.65;7.05;;;9.10;99.90;;;;;;6124509;23;20104;-74
2022/09/11 06:04:12;;;;;;;13.98;7.80;;;9.70;99.90;;;;;;6123419;23;20025;-75
2022/09/11 06:06:42;;;;;;;10.35;7.38;;;10.80;99.90;;;;;;6124733;23;20530;-74
2022/09/11 06:09:10;;;;;;;9.25;7.28;;;12.00;99.90;;;;;;6124721;23;20029;-75
2022/09/11 06:11:39;;;;;;;22.15;9.13;;;13.20;99.90;;;;;;6102662;23;20088;-78
2022/09/11 06:14:06;;;;;;;12.95;8.18;;;14.20;99.90;;;;;;6151356;23;20095;-78
2022/09/11 06:16:36;;;;;;;12.65;7.43;;;15.10;99.90;;;;;;6099102;23;20035;-78
2022/09/11 06:19:11;;;;;;;12.07;7.93;;;16.00;99.90;;;;;;6147890;23;20017;-74
2022/09/11 06:21:39;;;;;;;12.80;7.65;;;16.70;99.90;;;;;;6150998;23;20026;-73
2022/09/11 06:24:18;;;;;;;10.93;7.63;;;17.40;99.90;;;;;;6123690;23;20021;-73
2022/09/11 06:26:48;;;;;;;9.40;7.25;;;17.80;99.90;;;;;;6123064;23;20026;-80
2022/09/11 06:29:15;;;;;;;8.60;6.90;;;18.30;99.90;;;;;;6150282;23;20027;-79
2022/09/11 06:31:50;;;;;;;14.88;8.38;;;18.90;99.90;;;;;;6102013;23;20351;-79
2022/09/11 06:34:19;;;;;;;14.23;6.75;;;19.30;99.90;;;;;;6100309;23;20048;-74
2022/09/11 06:36:48;;;;;;;10.73;7.65;;;19.70;99.90;;;;;;6149230;23;20048;-73
2022/09/11 06:39:16;;;;;;;12.40;7.75;;;20.30;99.00;;;;;;6148818;23;20048;-73
2022/09/11 06:41:43;;;;;;;8.23;7.43;;;20.70;96.50;;;;;;6124404;23;20021;-73
2022/09/11 06:44:16;;;;;;;7.80;6.60;;;21.00;95.20;;;;;;6121847;23;20021;-74
2022/09/11 06:46:44;;;;;;;11.27;7.60;;;21.40;93.70;;;;;;6124896;23;20032;-75
2022/09/11 06:49:14;;;;;;;9.95;7.00;;;21.60;92.30;;;;;;6125518;23;20029;-73
2022/09/11 06:52:00;;;;;;;16.55;8.38;;;21.90;91.00;;;;;;6150494;23;20161;-82
2022/09/11 06:54:29;;;;;;;11.55;7.18;;;22.20;90.50;;;;;;6123603;23;20021;-78
2022/09/11 06:56:58;;;;;;;13.07;8.00;;;22.40;86.60;;;;;;6124660;23;20025;-80
2022/09/11 06:59:29;;;;;;;8.88;6.10;;;22.70;86.60;;;;;;6126039;23;20028;-80
2022/09/11 07:01:56;;;;;;;7.78;6.57;;;23.00;83.50;;;;;;6149400;23;20366;-80
2022/09/11 07:04:24;;;;;;;12.15;6.90;;;23.20;82.00;;;;;;6124831;23;20021;-81
2022/09/11 07:06:51;;;;;;;7.75;5.20;;;23.40;80.30;;;;;;6101175;23;20049;-74
2022/09/11 07:09:20;;;;;;;11.10;6.60;;;23.40;77.70;;;;;;6124055;23;20025;-74
2022/09/11 07:11:52;;;;;;;11.07;5.53;;;23.30;81.30;;;;;;6124798;23;20026;-73
2022/09/11 07:14:22;;;;;;;9.90;5.82;;;23.40;79.40;;;;;;6151713;23;20084;-72
2022/09/11 07:16:59;;;;;;;3.22;2.92;;;23.70;78.30;;;;;;6151155;23;20021;-73
2022/09/11 07:19:27;;;;;;;4.80;3.28;;;24.00;74.30;;;;;;6099709;23;20029;-74
2022/09/11 07:21:54;;;;;;;5.05;3.00;;;24.40;73.20;;;;;;6121006;23;20109;-74
2022/09/11 07:24:25;;;;;;;5.63;3.17;;;24.60;72.40;;;;;;6143539;23;20021;-74
2022/09/11 07:26:54;;;;;;;3.88;3.10;;;24.90;66.70;;;;;;6123887;23;20104;-73
2022/09/11 07:29:28;;;;;;;6.63;2.92;;;24.80;69.10;;;;;;6121036;23;20029;-74
2022/09/11 07:32:02;;;;;;;3.50;3.20;;;25.10;68.60;;;;;;6149913;23;20477;-73
2022/09/11 07:34:31;;;;;;;8.88;3.55;;;25.50;68.20;;;;;;6121092;23;20018;-73
2022/09/11 07:37:03;;;;;;;3.58;2.97;;;25.40;65.00;;;;;;6124616;23;20432;-72
2022/09/11 07:39:32;;;;;;;7.72;2.95;;;25.30;64.80;;;;;;6146267;23;20026;-75
2022/09/11 07:42:06;;;;;;;4.40;2.47;;;25.70;65.90;;;;;;6123931;23;20028;-74
2022/09/11 07:44:34;;;;;;;4.97;4.07;;;26.00;63.80;;;;;;6126301;23;20068;-73
2022/09/11 07:47:04;;;;;;;2.53;2.30;;;26.30;64.50;;;;;;6152758;23;20025;-73
2022/09/11 07:49:37;;;;;;;4.18;3.03;;;26.50;61.80;;;;;;6126065;23;20022;-73
2022/09/11 07:52:05;;;;;;;2.97;2.35;;;26.70;64.60;;;;;;6101756;23;20359;-74
2022/09/11 07:54:39;;;;;;;3.53;3.22;;;26.60;59.60;;;;;;6126509;23;20025;-74
2022/09/11 07:57:06;;;;;;;2.50;2.30;;;25.50;62.20;;;;;;6100288;23;20104;-73
2022/09/11 07:59:34;;;;;;;2.53;2.33;;;24.80;63.50;;;;;;6125748;23;20025;-74
2022/09/11 08:02:06;;;;;;;4.45;2.10;;;24.60;61.30;;;;;;6153311;23;20045;-73
2022/09/11 08:04:35;;;;;;;5.05;1.73;;;24.10;64.00;;;;;;6127648;23;20029;-73
2022/09/11 08:07:02;;;;;;;2.47;1.85;;;24.10;62.80;;;;;;6100488;23;20418;-77
2022/09/11 08:09:34;;;;;;;2.15;1.77;;;24.60;63.60;;;;;;6125816;23;20068;-75
2022/09/11 08:12:05;;;;;;;1.92;1.80;;;25.60;62.20;;;;;;6127531;23;20367;-73
2022/09/11 08:14:36;;;;;;;1.75;1.65;;;26.30;58.70;;;;;;6101776;23;20049;-74
2022/09/11 08:17:11;;;;;;;3.53;1.77;;;26.80;58.50;;;;;;6127536;23;20414;-73
2022/09/11 08:19:40;;;;;;;2.95;2.00;;;27.50;57.00;;;;;;6151896;23;20035;-73
2022/09/11 08:22:07;;;;;;;3.40;3.20;;;28.00;55.80;;;;;;6127977;23;20512;-72
2022/09/11 08:24:41;;;;;;;9.00;3.67;;;28.60;54.10;;;;;;6126259;23;20025;-73
2022/09/11 08:27:17;;;;;;;2.70;2.50;;;28.10;54.70;;;;;;6125688;23;20053;-74
2022/09/11 08:29:49;;;;;;;2.60;2.30;;;28.20;54.70;;;;;;6151885;23;20025;-75
2022/09/11 08:32:19;;;;;;;3.25;1.60;;;28.40;54.90;;;;;;6103633;23;20025;-74
2022/09/11 08:34:46;;;;;;;3.33;1.55;;;29.00;52.70;;;;;;6125190;23;20021;-72
2022/09/11 08:37:17;;;;;;;1.73;1.58;;;29.50;53.20;;;;;;6125168;23;20481;-79
2022/09/11 08:39:46;;;;;;;1.80;1.50;;;29.80;53.90;;;;;;6151326;23;20340;-79
2022/09/11 08:42:17;;;;;;;3.20;1.80;;;30.10;50.30;;;;;;6151682;23;20025;-74
2022/09/11 08:44:50;;;;;;;1.63;1.52;;;29.80;50.50;;;;;;6125479;23;20483;-73
2022/09/11 08:47:29;;;;;;;1.40;1.30;;;29.80;51.50;;;;;;6152717;23;20102;-73
2022/09/11 08:50:03;;;;;;;1.60;1.50;;;30.20;51.10;;;;;;6127999;23;20367;-74
2022/09/11 08:52:34;;;;;;;1.50;1.38;;;30.50;50.10;;;;;;6149213;23;20021;-74
2022/09/11 08:55:03;;;;;;;2.95;2.00;;;30.70;49.70;;;;;;6125313;23;20025;-73
2022/09/11 08:57:42;;;;;;;1.30;1.20;;;30.50;50.00;;;;;;6127793;23;20025;-74
2022/09/11 09:00:19;;;;;;;2.63;1.63;;;30.60;47.20;;;;;;6126532;23;20101;-75
2022/09/11 09:03:31;;;;;;;5.10;4.30;;;30.10;47.80;;;;;;6149969;23;20021;-72
2022/09/11 09:06:29;;;;;;;1.75;1.17;;;29.70;48.40;;;;;;6126045;23;20026;-74
2022/09/11 09:09:10;;;;;;;2.90;1.48;;;29.60;48.30;;;;;;6152090;23;20044;-72
2022/09/11 09:11:49;;;;;;;1.80;1.00;;;29.80;47.90;;;;;;6152335;23;20032;-71
2022/09/11 09:14:47;;;;;;;1.50;1.40;;;30.10;47.50;;;;;;6127216;23;20108;-78
2022/09/11 09:17:20;;;;;;;1.08;0.85;;;30.50;48.90;;;;;;6111349;23;20027;-71
2022/09/11 09:19:55;;;;;;;1.73;1.20;;;30.70;47.30;;;;;;6125131;23;20348;-78
2022/09/11 09:22:37;;;;;;;1.70;0.95;;;31.30;46.60;;;;;;6125665;23;20380;-79
2022/09/11 09:25:12;;;;;;;1.58;0.95;;;31.70;47.90;;;;;;6122954;23;20025;-79
2022/09/11 09:27:46;;;;;;;1.95;1.13;;;31.80;44.80;;;;;;6146520;23;20025;-77
2022/09/11 09:30:17;;;;;;;1.00;1.00;;;31.60;46.60;;;;;;6119792;23;20112;-77
2022/09/11 09:32:52;;;;;;;2.40;0.90;;;31.90;44.80;;;;;;6119326;23;20431;-78
2022/09/11 09:35:25;;;;;;;1.55;1.00;;;32.00;46.50;;;;;;6145903;23;20032;-72
2022/09/11 09:37:54;;;;;;;1.10;1.00;;;32.00;45.60;;;;;;6119736;23;20044;-72
2022/09/11 09:40:25;;;;;;;1.13;0.68;;;31.50;44.60;;;;;;6119390;23;20100;-72
2022/09/11 09:43:28;;;;;;;2.08;0.70;;;30.10;47.00;;;;;;6120662;23;20605;-72
2022/09/11 09:46:12;;;;;;;1.20;1.10;;;28.30;45.40;;;;;;6130459;23;20351;-73
2022/09/11 09:48:40;;;;;;;0.85;0.85;;;26.30;48.60;;;;;;6147724;23;20466;-72
2022/09/11 09:51:13;;;;;;;2.25;0.98;;;24.60;53.70;;;;;;6147249;23;20040;-71
2022/09/11 09:53:45;;;;;;;0.90;0.88;;;23.60;55.40;;;;;;6147935;23;20076;-72
2022/09/11 09:56:16;;;;;;;2.28;0.70;;;23.10;56.20;;;;;;6146844;23;20021;-73
2022/09/11 09:58:55;;;;;;;1.45;1.30;;;22.90;54.80;;;;;;6122263;23;20025;-71
2022/09/11 10:01:47;;;;;;;1.20;1.10;;;23.00;54.00;;;;;;6148152;23;20025;-71
2022/09/11 10:04:18;;;;;;;1.33;1.23;;;24.40;53.60;;;;;;6148127;23;20021;-70
2022/09/11 10:06:52;;;;;;;1.02;0.80;;;25.90;50.10;;;;;;6122405;23;20104;-71
2022/09/11 10:09:26;;;;;;;1.00;0.90;;;27.40;48.00;;;;;;6147082;23;20029;-71
2022/09/11 10:12:02;;;;;;;3.53;1.17;;;28.50;46.00;;;;;;6146557;23;20088;-73
2022/09/11 10:14:32;;;;;;;1.80;1.10;;;29.00;45.60;;;;;;6146470;23;20030;-72
2022/09/11 10:17:01;;;;;;;5.10;1.10;;;29.50;44.40;;;;;;6146709;23;20428;-73
2022/09/11 10:19:41;;;;;;;1.33;1.23;;;30.00;44.20;;;;;;6147444;23;20057;-72
2022/09/11 10:22:31;;;;;;;1.10;1.00;;;30.80;43.50;;;;;;6148619;23;20022;-72
2022/09/11 10:25:21;;;;;;;1.30;1.20;;;31.30;42.90;;;;;;6141578;23;20382;-71
2022/09/11 10:28:03;;;;;;;1.10;0.85;;;31.70;42.50;;;;;;6142852;23;20125;-70
2022/09/11 10:30:35;;;;;;;1.17;1.02;;;31.70;41.60;;;;;;6148429;23;20284;-72
2022/09/11 10:33:06;;;;;;;1.30;1.20;;;30.80;42.20;;;;;;6120927;23;20113;-74
2022/09/11 10:35:36;;;;;;;1.73;1.00;;;30.30;44.10;;;;;;6147620;23;20355;-73
2022/09/11 10:38:16;;;;;;;0.88;0.85;;;30.40;42.50;;;;;;6144677;23;20045;-73
2022/09/11 10:40:57;;;;;;;1.60;1.20;;;30.00;43.30;;;;;;6146869;23;20035;-78
2022/09/11 10:43:31;;;;;;;1.83;1.73;;;29.70;42.90;;;;;;6118492;23;20028;-80
2022/09/11 10:46:23;;;;;;;3.15;1.08;;;29.10;42.90;;;;;;6120840;23;20025;-71
2022/09/11 10:48:56;;;;;;;2.33;1.70;;;28.70;43.20;;;;;;6147615;23;20394;-72
2022/09/11 10:51:25;;;;;;;5.43;3.75;;;28.00;44.00;;;;;;6144848;23;20454;-73
2022/09/11 10:54:13;;;;;;;6.00;3.30;;;26.90;45.40;;;;;;6145396;23;20025;-72
2022/09/11 10:57:03;;;;;;;5.43;3.00;;;26.30;46.10;;;;;;6145270;23;20021;-74
2022/09/11 10:59:44;;;;;;;9.07;5.63;;;25.60;47.00;;;;;;6147258;23;20364;-72
2022/09/11 11:02:21;;;;;;;1.30;1.20;;;25.10;49.50;;;;;;6147835;23;20027;-73
2022/09/11 11:04:49;;;;;;;1.77;1.27;;;24.10;49.30;;;;;;6148020;23;20104;-73
2022/09/11 11:07:58;;;;;;;2.97;1.63;;;23.50;52.00;;;;;;6120154;23;20376;-74
2022/09/11 11:10:41;;;;;;;2.75;1.35;;;23.10;51.80;;;;;;6115503;23;20025;-78
2022/09/11 11:13:30;;;;;;;3.03;1.58;;;23.70;50.90;;;;;;6121689;23;20351;-76
2022/09/11 11:16:11;;;;;;;1.48;1.13;;;24.10;51.10;;;;;;6149548;23;20466;-79
2022/09/11 11:18:56;;;;;;;1.20;1.10;;;24.10;51.50;;;;;;6149233;23;20052;-79
2022/09/11 11:21:40;;;;;;;2.95;1.23;;;24.10;53.00;;;;;;6148430;23;20051;-72
2022/09/11 11:24:28;;;;;;;7.90;1.45;;;24.40;53.50;;;;;;6146550;23;20029;-73
2022/09/11 11:27:21;;;;;;;1.55;1.17;;;25.80;51.80;;;;;;6146547;23;20339;-73
2022/09/11 11:30:08;;;;;;;3.58;1.10;;;;;;;;;;6146749;23;20395;-73
2022/09/11 11:32:57;;;;;;;0.85;0.85;;;29.70;45.40;;;;;;6147267;23;20045;-71
2022/09/11 11:35:32;;;;;;;1.75;0.90;;;30.80;43.10;;;;;;6145878;23;20494;-73
2022/09/11 11:38:09;;;;;;;4.55;1.05;;;31.80;42.10;;;;;;6146551;23;20086;-71
2022/09/11 11:40:45;;;;;;;2.00;1.50;;;32.20;40.90;;;;;;6148943;23;20052;-72
2022/09/11 11:43:17;;;;;;;1.02;0.93;;;32.60;41.50;;;;;;6148869;23;20099;-75
2022/09/11 11:45:49;;;;;;;1.63;1.00;;;33.00;41.40;;;;;;6148374;23;20044;-72
2022/09/11 11:48:22;;;;;;;2.00;0.80;;;33.20;40.00;;;;;;6148725;23;20043;-73
2022/09/11 11:50:56;;;;;;;1.08;0.98;;;33.60;39.10;;;;;;6149008;23;20058;-72
2022/09/11 11:53:30;;;;;;;1.75;1.20;;;33.60;38.70;;;;;;6148464;23;20550;-72
2022/09/11 11:56:07;;;;;;;1.25;1.15;;;32.60;39.30;;;;;;6149683;23;20021;-72
2022/09/11 11:58:47;;;;;;;1.10;1.00;;;31.90;41.20;;;;;;6149397;23;20340;-71
2022/09/11 12:01:22;;;;;;;3.45;1.45;;;32.00;42.00;;;;;;6149047;23;20275;-71
2022/09/11 12:03:59;;;;;;;2.15;0.82;;;32.80;40.00;;;;;;6148894;23;20038;-71
2022/09/11 12:06:28;;;;;;;2.10;1.20;;;33.70;38.30;;;;;;6149925;23;20048;-71
2022/09/11 12:08:56;;;;;;;2.25;1.17;;;33.50;39.60;;;;;;6149141;23;20100;-76
2022/09/11 12:11:31;;;;;;;3.17;1.45;;;32.10;40.80;;;;;;6150051;23;20028;-77
2022/09/11 12:14:01;;;;;;;1.42;1.25;;;30.10;41.60;;;;;;6152057;23;20398;-76
2022/09/11 12:16:33;;;;;;;2.80;1.17;;;28.10;43.10;;;;;;6122948;23;20402;-73
2022/09/11 12:19:18;;;;;;;5.90;1.70;;;27.10;44.70;;;;;;6147402;23;20021;-72
2022/09/11 12:22:07;;;;;;;2.90;1.40;;;26.60;46.10;;;;;;6149131;23;20025;-79
2022/09/11 12:24:53;;;;;;;1.45;1.35;;;26.40;48.20;;;;;;6121736;23;20025;-78
2022/09/11 12:27:55;;;;;;;3.20;1.23;;;26.00;49.00;;;;;;6146796;23;20022;-71
2022/09/11 12:30:27;;;;;;;2.88;1.30;;;25.30;48.40;;;;;;6148528;23;20056;-71
2022/09/11 12:32:57;;;;;;;1.80;1.50;;;25.00;48.90;;;;;;6149965;23;20057;-73
2022/09/11 12:35:43;;;;;;;1.98;1.30;;;24.90;49.90;;;;;;6149127;23;20053;-76
2022/09/11 12:38:18;;;;;;;2.83;1.10;;;;;;;;;;6147373;23;20100;-75
2022/09/11 12:40:53;;;;;;;2.42;1.15;;;24.30;50.80;;;;;;6148815;23;20026;-77
2022/09/11 12:43:46;;;;;;;0.73;0.73;;;23.90;50.80;;;;;;6149227;23;20029;-77
2022/09/11 12:47:15;;;;;;;1.75;1.60;;;24.50;52.90;;;;;;6149824;23;20116;-77
2022/09/11 12:49:54;;;;;;;1.23;1.20;;;25.50;51.50;;;;;;6123001;23;20029;-73
2022/09/11 12:52:36;;;;;;;2.33;0.85;;;27.80;49.50;;;;;;6149106;23;20056;-70
2022/09/11 12:55:30;;;;;;;2.25;1.50;;;29.80;45.60;;;;;;6147797;23;20028;-71
2022/09/11 12:58:01;;;;;;;2.75;1.50;;;31.30;41.70;;;;;;6121448;23;20026;-72
2022/09/11 13:00:38;;;;;;;2.53;1.33;;;31.80;41.20;;;;;;6121707;23;20455;-71
2022/09/11 13:03:16;;;;;;;1.38;1.00;;;32.30;40.20;;;;;;6147610;23;20021;-73
2022/09/11 13:05:53;;;;;;;3.33;0.95;;;32.70;39.90;;;;;;6147619;23;20017;-72
2022/09/11 13:08:25;;;;;;;2.10;1.20;;;33.30;39.70;;;;;;6148999;23;20300;-71
2022/09/11 13:10:52;;;;;;;1.33;1.23;;;33.50;40.50;;;;;;6122326;23;20053;-71
2022/09/11 13:13:43;;;;;;;1.45;1.35;;;34.00;40.50;;;;;;6121490;23;20481;-71
2022/09/11 13:16:24;;;;;;;1.85;1.20;;;34.40;39.80;;;;;;6148731;23;20018;-73
2022/09/11 13:18:59;;;;;;;2.35;1.40;;;34.40;39.00;;;;;;6147851;23;20526;-73